createdAt,value
2023-04-09T00:05:11.470Z,73.07
2023-04-09T00:10:34.087Z,74.50
2023-04-09T00:15:56.282Z,76.03
2023-04-09T00:21:18.827Z,66.50
2023-04-09T00:26:41.142Z,69.07
2023-04-09T00:32:03.667Z,57.67
2023-04-09T00:37:25.882Z,64.50
2023-04-09T00:42:48.321Z,68.47
2023-04-09T00:48:11.742Z,63.53
2023-04-09T00:53:34.787Z,62.53
2023-04-09T00:58:57.329Z,65.80
2023-04-09T01:04:20.760Z,65.03
2023-04-09T01:09:54.676Z,59.87
2023-04-09T01:15:26.940Z,53.53
2023-04-09T01:21:17.976Z,60.73
2023-04-09T01:26:57.317Z,49.20
2023-04-09T01:32:25.752Z,58.57
2023-04-09T01:37:49.307Z,48.80
2023-04-09T01:43:13.438Z,54.37
2023-04-09T01:48:36.625Z,59.77
2023-04-09T01:54:00.696Z,69.03
2023-04-09T01:59:22.837Z,61.17
2023-04-09T02:04:48.376Z,67.37
2023-04-09T02:10:13.285Z,58.50
2023-04-09T02:15:38.960Z,55.10
2023-04-09T02:21:01.580Z,57.20
2023-04-09T02:26:24.605Z,49.53
2023-04-09T02:31:46.789Z,53.87
2023-04-09T02:37:08.901Z,51.03
2023-04-09T02:42:31.277Z,59.30
2023-04-09T02:47:53.634Z,54.67
2023-04-09T02:53:16.512Z,51.67
2023-04-09T02:58:39.093Z,54.40
2023-04-09T03:04:02.162Z,53.13
2023-04-09T03:09:24.845Z,59.43
2023-04-09T03:14:47.059Z,51.30
2023-04-09T03:20:12.618Z,52.73
2023-04-09T03:25:34.720Z,61.87
2023-04-09T03:31:05.784Z,71.60
2023-04-09T03:36:33.074Z,56.60
2023-04-09T03:41:59.704Z,52.00
2023-04-09T03:47:26.487Z,61.03
2023-04-09T03:52:50.433Z,62.27
2023-04-09T03:58:14.179Z,60.87
2023-04-09T04:03:37.197Z,60.00
2023-04-09T04:09:14.682Z,59.83
2023-04-09T04:14:45.837Z,60.87
2023-04-09T04:20:28.299Z,61.13
2023-04-09T04:25:59.031Z,52.60
2023-04-09T04:31:26.644Z,55.90
2023-04-09T04:36:52.820Z,51.30
2023-04-09T04:42:16.898Z,53.33
2023-04-09T04:47:40.733Z,55.43
2023-04-09T04:53:03.111Z,49.57
2023-04-09T04:58:30.925Z,55.17
2023-04-09T05:03:56.498Z,55.10
2023-04-09T05:09:29.845Z,52.13
2023-04-09T05:14:58.589Z,57.80
2023-04-09T05:20:20.949Z,60.03
2023-04-09T05:25:52.362Z,57.10
2023-04-09T05:31:29.944Z,51.93
2023-04-09T05:36:58.818Z,47.73
2023-04-09T05:42:22.312Z,51.13
2023-04-09T05:48:00.710Z,44.57
2023-04-09T05:53:23.547Z,66.30
2023-04-09T05:58:46.150Z,56.33
2023-04-09T06:04:08.527Z,61.00
2023-04-09T06:09:31.274Z,59.47
2023-04-09T06:14:53.846Z,59.27
2023-04-09T06:20:16.576Z,60.73
2023-04-09T06:25:39.116Z,64.77
2023-04-09T06:31:01.964Z,65.80
2023-04-09T06:36:24.272Z,63.33
2023-04-09T06:41:47.604Z,64.57
2023-04-09T06:47:40.080Z,52.97
2023-04-09T06:53:02.637Z,52.10
2023-04-09T06:58:25.160Z,54.67
2023-04-09T07:03:47.962Z,49.97
2023-04-09T07:09:10.617Z,48.50
2023-04-09T07:14:33.047Z,53.63
2023-04-09T07:19:55.435Z,52.50
2023-04-09T07:25:18.047Z,49.47
2023-04-09T07:30:40.528Z,44.63
2023-04-09T07:36:03.307Z,46.37
2023-04-09T07:41:25.703Z,45.07
2023-04-09T07:46:48.036Z,47.87
2023-04-09T07:52:10.860Z,50.60
2023-04-09T07:57:33.708Z,48.33
2023-04-09T08:02:56.144Z,55.00
2023-04-09T08:08:19.926Z,41.10
2023-04-09T08:13:42.211Z,44.37
2023-04-09T08:19:04.482Z,42.53
2023-04-09T08:24:27.424Z,45.53
2023-04-09T08:29:49.729Z,43.97
2023-04-09T08:35:13.251Z,45.33
2023-04-09T08:40:36.254Z,37.63
2023-04-09T08:45:59.703Z,50.00
2023-04-09T08:51:23.974Z,48.63
2023-04-09T08:56:49.833Z,43.00
2023-04-09T09:02:12.801Z,43.93
2023-04-09T09:07:35.619Z,42.87
2023-04-09T09:12:57.718Z,38.63
2023-04-09T09:18:20.016Z,37.60
2023-04-09T09:23:42.832Z,39.43
2023-04-09T09:29:05.949Z,38.77
2023-04-09T09:34:28.224Z,37.07
2023-04-09T09:39:50.509Z,38.57
2023-04-09T09:45:19.692Z,33.53
2023-04-09T09:50:42.827Z,44.57
2023-04-09T09:56:06.973Z,39.50
2023-04-09T10:01:29.689Z,36.13
2023-04-09T10:06:53.630Z,38.13
2023-04-09T10:12:17.204Z,38.23
2023-04-09T10:17:39.882Z,33.40
2023-04-09T10:23:09.705Z,42.90
2023-04-09T10:28:32.636Z,41.00
2023-04-09T10:34:05.634Z,32.37
2023-04-09T10:39:30.576Z,39.43
2023-04-09T10:45:14.453Z,37.33
2023-04-09T10:50:38.196Z,35.97
2023-04-09T10:56:14.792Z,33.77
2023-04-09T11:01:37.347Z,35.80
2023-04-09T11:07:01.873Z,29.60
2023-04-09T11:12:24.391Z,30.27
2023-04-09T11:17:50.514Z,34.53
2023-04-09T11:23:13.991Z,32.77
2023-04-09T11:28:36.369Z,36.13
2023-04-09T11:33:58.910Z,32.60
2023-04-09T11:39:21.378Z,31.67
2023-04-09T11:44:46.996Z,30.97
2023-04-09T11:50:10.991Z,30.13
2023-04-09T11:55:33.875Z,30.50
2023-04-09T12:00:58.647Z,30.93
2023-04-09T12:06:23.059Z,32.97
2023-04-09T12:11:46.220Z,29.67
2023-04-09T12:17:08.735Z,26.60
2023-04-09T12:22:31.347Z,24.97
2023-04-09T12:27:55.777Z,26.03
2023-04-09T12:33:18.198Z,28.23
2023-04-09T12:38:40.534Z,30.50
2023-04-09T12:44:03.107Z,26.20
2023-04-09T12:49:25.745Z,27.97
2023-04-09T12:54:48.876Z,28.33
2023-04-09T13:00:12.158Z,24.60
2023-04-09T13:05:35.649Z,29.83
2023-04-09T13:10:57.814Z,26.30
2023-04-09T13:16:19.984Z,27.60
2023-04-09T13:21:42.531Z,25.93
2023-04-09T13:27:06.218Z,26.80
2023-04-09T13:32:28.910Z,27.63
2023-04-09T13:37:51.489Z,25.63
2023-04-09T13:43:13.726Z,27.17
2023-04-09T13:48:36.080Z,24.23
2023-04-09T13:53:58.501Z,25.80
2023-04-09T13:59:20.632Z,24.13
2023-04-09T14:04:43.368Z,28.42
2023-04-09T14:10:06.702Z,26.23
2023-04-09T14:15:29.395Z,28.48
2023-04-09T14:20:51.726Z,27.40
2023-04-09T14:26:14.524Z,26.55
2023-04-09T14:31:36.929Z,24.98
2023-04-09T14:36:59.509Z,26.13
2023-04-09T14:42:21.898Z,27.15
2023-04-09T14:47:44.218Z,27.30
2023-04-09T14:53:06.708Z,22.65
2023-04-09T14:58:29.241Z,23.15
2023-04-09T15:03:52.020Z,22.40
2023-04-09T15:09:15.015Z,24.08
2023-04-09T15:14:37.411Z,20.90
2023-04-09T15:19:59.785Z,22.95
2023-04-09T15:25:24.010Z,22.67
2023-04-09T15:30:46.164Z,20.95
2023-04-09T15:36:09.105Z,25.02
2023-04-09T15:41:32.415Z,22.27
2023-04-09T15:46:54.834Z,21.02
2023-04-09T15:52:17.312Z,20.50
2023-04-09T15:57:39.787Z,19.97
2023-04-09T16:03:02.195Z,21.40
2023-04-09T16:08:25.763Z,24.77
2023-04-09T16:13:48.237Z,22.17
2023-04-09T16:19:10.535Z,21.90
2023-04-09T16:24:32.684Z,23.30
2023-04-09T16:29:54.819Z,20.70
2023-04-09T16:35:17.059Z,24.90
2023-04-09T16:40:39.684Z,21.33
2023-04-09T16:46:02.600Z,24.33
2023-04-09T16:51:24.833Z,26.97
2023-04-09T16:56:48.806Z,23.87
2023-04-09T17:02:11.125Z,23.70
2023-04-09T17:07:35.742Z,23.90
2023-04-09T17:12:58.051Z,27.40
2023-04-09T17:18:20.860Z,22.27
2023-04-09T17:23:44.180Z,23.90
2023-04-09T17:29:06.736Z,22.97
2023-04-09T17:34:29.212Z,24.70
2023-04-09T17:39:51.520Z,28.40
2023-04-09T17:45:14.111Z,26.53
2023-04-09T17:50:39.358Z,41.27
2023-04-09T17:56:04.048Z,31.90
2023-04-09T18:01:26.776Z,22.23
2023-04-09T18:06:49.198Z,34.97
2023-04-09T18:12:11.573Z,39.57
2023-04-09T18:17:33.848Z,45.33
2023-04-09T18:22:56.504Z,33.57
2023-04-09T18:28:19.155Z,32.27
2023-04-09T18:33:41.706Z,32.03
2023-04-09T18:39:05.089Z,27.37
2023-04-09T18:44:27.668Z,29.17
2023-04-09T18:49:49.988Z,36.77
2023-04-09T18:55:13.682Z,40.90
2023-04-09T19:00:36.768Z,59.07
2023-04-09T19:06:00.141Z,39.73
2023-04-09T19:11:22.728Z,32.17
2023-04-09T19:16:45.046Z,30.00
2023-04-09T19:22:07.772Z,30.97
2023-04-09T19:27:30.362Z,31.07
2023-04-09T19:32:53.529Z,41.07
2023-04-09T19:38:17.210Z,36.87
2023-04-09T19:43:41.973Z,31.77
2023-04-09T19:49:04.205Z,37.17
2023-04-09T19:54:26.823Z,30.43
2023-04-09T19:59:49.964Z,30.37
2023-04-09T20:05:14.196Z,34.47
2023-04-09T20:10:39.841Z,40.00
2023-04-09T20:16:02.528Z,58.27
2023-04-09T20:21:25.133Z,56.77
2023-04-09T20:26:47.756Z,47.00
2023-04-09T20:32:10.431Z,44.27
2023-04-09T20:37:32.863Z,41.07
2023-04-09T20:42:55.000Z,33.37
2023-04-09T20:48:18.546Z,43.43
2023-04-09T20:53:40.686Z,36.90
2023-04-09T20:59:03.910Z,31.13
2023-04-09T21:04:27.547Z,38.13
2023-04-09T21:09:49.688Z,32.40
2023-04-09T21:15:12.137Z,38.07
2023-04-09T21:20:34.280Z,27.80
2023-04-09T21:25:56.752Z,32.80
2023-04-09T21:31:19.576Z,38.37
2023-04-09T21:36:42.341Z,41.20
2023-04-09T21:42:06.447Z,43.37
2023-04-09T21:47:28.853Z,43.23
2023-04-09T21:52:51.464Z,43.40
2023-04-09T21:58:13.552Z,39.90
2023-04-09T22:03:36.110Z,39.10
2023-04-09T22:08:58.844Z,42.60
2023-04-09T22:14:22.138Z,38.57
2023-04-09T22:19:44.337Z,39.80
2023-04-09T22:25:07.182Z,47.93
2023-04-09T22:30:29.612Z,51.20
2023-04-09T22:35:52.107Z,44.93
2023-04-09T22:41:16.016Z,48.50
2023-04-09T22:46:38.630Z,39.40
2023-04-09T22:52:01.128Z,54.10
2023-04-09T22:57:23.430Z,50.63
2023-04-09T23:02:47.566Z,48.57
2023-04-09T23:08:10.421Z,49.43
2023-04-09T23:13:32.783Z,47.97
2023-04-09T23:18:55.495Z,45.30
2023-04-09T23:24:19.234Z,50.73
2023-04-09T23:29:41.611Z,48.67
2023-04-09T23:35:04.669Z,48.23
2023-04-09T23:40:27.242Z,51.63
2023-04-09T23:45:50.669Z,60.20
2023-04-09T23:51:20.140Z,61.27
2023-04-09T23:56:42.539Z,55.57
